TimeCDT,TemperatureF,Dew PointF,Humidity,Sea Level PressureIn,VisibilityMPH,Wind Direction,Wind SpeedMPH,Gust SpeedMPH,PrecipitationIn,Events,Conditions,WindDirDegrees,DateUTC
12:52 AM,64.0,61.0,90,29.85,10.0,East,6.9,-,N/A,,Clear,90,2013-06-24 05:52:00
1:52 AM,64.0,62.1,93,29.83,10.0,ESE,8.1,-,N/A,,Clear,110,2013-06-24 06:52:00
2:52 AM,64.0,62.1,93,29.82,10.0,East,5.8,-,N/A,,Clear,90,2013-06-24 07:52:00
3:52 AM,64.0,63.0,96,29.81,10.0,ESE,5.8,-,N/A,,Clear,120,2013-06-24 08:52:00
4:52 AM,64.9,64.0,97,29.81,10.0,SSE,5.8,-,N/A,,Mostly Cloudy,160,2013-06-24 09:52:00
5:52 AM,66.9,61.0,81,29.77,10.0,Calm,Calm,-,N/A,,Clear,0,2013-06-24 10:52:00
6:52 AM,64.0,57.9,80,29.72,10.0,NW,6.9,-,N/A,,Clear,320,2013-06-24 11:52:00
7:52 AM,64.0,59.0,84,29.69,10.0,Calm,Calm,-,N/A,,Clear,0,2013-06-24 12:52:00
8:52 AM,70.0,57.9,65,29.69,10.0,Calm,Calm,-,N/A,,Clear,0,2013-06-24 13:52:00
9:52 AM,73.9,60.1,62,29.75,10.0,East,11.5,-,N/A,,Clear,80,2013-06-24 14:52:00
10:52 AM,77.0,59.0,54,29.74,10.0,ESE,20.7,25.3,N/A,,Clear,120,2013-06-24 15:52:00
11:52 AM,75.9,59.0,56,29.77,10.0,SE,20.7,26.5,N/A,,Clear,130,2013-06-24 16:52:00
12:52 PM,78.1,60.1,54,29.75,10.0,SSE,13.8,-,N/A,,Clear,150,2013-06-24 17:52:00
1:52 PM,81.0,60.1,49,29.72,10.0,South,11.5,-,N/A,,Clear,170,2013-06-24 18:52:00
2:52 PM,82.9,62.1,49,29.69,10.0,SSE,18.4,24.2,N/A,,Clear,150,2013-06-24 19:52:00
3:52 PM,86.0,64.0,48,29.67,10.0,SSE,15.0,-,N/A,,Clear,160,2013-06-24 20:52:00
4:52 PM,87.1,62.1,43,29.66,10.0,South,13.8,23.0,N/A,,Clear,170,2013-06-24 21:52:00
5:52 PM,87.1,61.0,41,29.65,10.0,SSE,18.4,23.0,N/A,,Clear,160,2013-06-24 22:52:00
6:52 PM,86.0,61.0,43,29.65,10.0,South,16.1,-,N/A,,Clear,170,2013-06-24 23:52:00
7:52 PM,82.9,64.0,53,29.67,10.0,SSE,10.4,-,N/A,,Clear,160,2013-06-25 00:52:00
8:52 PM,79.0,68.0,69,29.69,10.0,Calm,Calm,-,N/A,,Clear,0,2013-06-25 01:52:00
9:52 PM,75.9,66.9,74,29.69,10.0,Calm,Calm,-,N/A,,Clear,0,2013-06-25 02:52:00
10:52 PM,78.1,52.0,40,29.73,10.0,NW,4.6,-,N/A,,Overcast,320,2013-06-25 03:52:00
11:52 PM,73.9,50.0,43,29.68,10.0,SSE,6.9,-,N/A,,Clear,150,2013-06-25 04:52:00